Time;durP1;ratioP1;P1;durP2;ratioP2;P2;SDS_P1;SDS_P2;PMS_P1;PMS_P2;Temp;Humidity;BMP_temperature;BMP_pressure;BME280_temperature;BME280_humidity;BME280_pressure;Samples;Min_cycle;Max_cycle;Signal;HPM_P1;HPM_P2
2023/08/06 00:00:50;;;;;;;1.35;1.25;;;17.70;58.40;;;;;;5070754;28;20043;-68
2023/08/06 00:03:16;;;;;;;1.30;0.88;;;17.70;58.50;;;;;;5064268;28;20373;-70
2023/08/06 00:05:43;;;;;;;2.63;1.17;;;17.60;58.40;;;;;;5063981;28;20029;-70
2023/08/06 00:08:09;;;;;;;1.55;1.05;;;17.60;58.50;;;;;;5044827;28;20147;-70
2023/08/06 00:10:34;;;;;;;1.10;1.00;;;17.60;58.60;;;;;;5061036;28;20117;-69
2023/08/06 00:13:01;;;;;;;1.33;1.05;;;17.60;58.70;;;;;;5058730;28;20059;-70
2023/08/06 00:15:27;;;;;;;1.30;1.20;;;17.50;58.60;;;;;;5073183;28;20547;-69
2023/08/06 00:17:53;;;;;;;1.17;0.90;;;17.50;58.70;;;;;;5069636;28;20138;-71
2023/08/06 00:20:19;;;;;;;2.03;1.10;;;17.50;58.70;;;;;;5065127;28;20109;-69
2023/08/06 00:22:45;;;;;;;1.20;1.10;;;17.50;58.80;;;;;;5059964;28;20117;-76
2023/08/06 00:25:11;;;;;;;1.63;1.10;;;17.40;58.80;;;;;;5062332;28;20482;-72
2023/08/06 00:27:38;;;;;;;1.42;1.20;;;17.40;58.90;;;;;;5063595;28;20044;-69
2023/08/06 00:30:04;;;;;;;1.48;1.38;;;17.40;59.00;;;;;;5065080;28;20452;-69
2023/08/06 00:32:30;;;;;;;1.38;1.15;;;17.40;59.00;;;;;;5061139;28;20064;-80
2023/08/06 00:34:56;;;;;;;1.33;1.17;;;17.40;59.20;;;;;;5060385;28;20513;-74
2023/08/06 00:37:23;;;;;;;1.80;1.25;;;17.40;59.20;;;;;;5059054;28;20688;-72
2023/08/06 00:39:49;;;;;;;1.10;1.00;;;17.40;59.30;;;;;;5062780;28;20037;-72
2023/08/06 00:42:20;;;;;;;2.17;1.25;;;17.30;59.20;;;;;;5062533;28;20552;-74
2023/08/06 00:44:46;;;;;;;0.90;0.90;;;17.40;59.40;;;;;;5061204;28;20044;-78
2023/08/06 00:47:13;;;;;;;1.38;1.00;;;17.30;59.30;;;;;;5061325;28;20028;-75
2023/08/06 00:49:39;;;;;;;2.03;1.23;;;17.30;59.30;;;;;;5073796;28;20079;-69
2023/08/06 00:52:07;;;;;;;1.92;1.20;;;17.30;59.40;;;;;;5055189;28;20059;-69
2023/08/06 00:54:36;;;;;;;1.98;0.68;;;17.30;59.50;;;;;;5069826;28;20117;-70
2023/08/06 00:57:04;;;;;;;1.65;1.27;;;17.20;59.40;;;;;;5066159;28;20484;-68
2023/08/06 00:59:30;;;;;;;1.27;1.00;;;17.20;59.50;;;;;;5065387;28;20032;-72
2023/08/06 01:01:57;;;;;;;3.30;1.40;;;17.20;59.60;;;;;;5065313;28;20078;-69
2023/08/06 01:04:23;;;;;;;2.03;1.35;;;17.10;59.50;;;;;;5069031;28;20028;-74
2023/08/06 01:07:00;;;;;;;1.00;1.00;;;17.10;59.50;;;;;;5062893;28;20386;-68
2023/08/06 01:09:47;;;;;;;1.38;1.23;;;17.10;59.60;;;;;;5060066;28;20040;-70
2023/08/06 01:12:26;;;;;;;2.58;1.27;;;17.00;59.60;;;;;;5066856;28;20056;-68
2023/08/06 01:14:56;;;;;;;2.20;1.27;;;17.00;59.60;;;;;;5065302;28;20044;-81
2023/08/06 01:17:26;;;;;;;3.00;1.50;;;17.00;59.70;;;;;;5061379;28;20016;-71
2023/08/06 01:19:52;;;;;;;1.27;1.17;;;16.90;59.60;;;;;;5061557;28;20049;-69
2023/08/06 01:22:19;;;;;;;1.83;1.38;;;16.90;59.70;;;;;;5060510;28;20033;-68
2023/08/06 01:24:49;;;;;;;1.33;0.98;;;16.90;59.80;;;;;;5066327;28;20025;-71
2023/08/06 01:27:38;;;;;;;2.42;1.13;;;16.90;59.80;;;;;;5059141;28;20119;-73
2023/08/06 01:30:13;;;;;;;1.33;1.00;;;16.90;60.00;;;;;;5068976;28;20039;-73
2023/08/06 01:32:44;;;;;;;1.65;1.33;;;16.80;59.80;;;;;;5059741;28;20052;-78
2023/08/06 01:35:12;;;;;;;1.48;1.33;;;16.80;59.80;;;;;;5069383;28;20117;-70
2023/08/06 01:37:39;;;;;;;1.67;1.17;;;16.80;59.90;;;;;;5063816;28;20025;-72
2023/08/06 01:40:11;;;;;;;1.35;1.25;;;16.80;60.00;;;;;;5060450;28;20085;-70
2023/08/06 01:42:38;;;;;;;;;;;16.70;59.90;;;;;;5062430;28;20033;-69
2023/08/06 01:45:05;;;;;;;1.70;1.20;;;16.70;59.80;;;;;;5062501;28;19916;-76
2023/08/06 01:47:31;;;;;;;1.30;1.10;;;16.70;59.70;;;;;;5056110;28;20067;-70
2023/08/06 01:49:57;;;;;;;0.90;0.90;;;16.70;59.80;;;;;;5056009;28;20027;-69
2023/08/06 01:52:23;;;;;;;1.38;1.02;;;16.70;60.00;;;;;;5057234;28;20544;-70
2023/08/06 01:54:49;;;;;;;2.17;1.30;;;16.60;59.90;;;;;;5066696;28;20071;-71
2023/08/06 01:57:15;;;;;;;2.83;1.45;;;16.60;60.00;;;;;;5067295;28;20029;-68
2023/08/06 01:59:41;;;;;;;1.42;1.13;;;16.50;59.90;;;;;;5070110;28;20088;-71
2023/08/06 02:02:07;;;;;;;1.58;1.10;;;16.50;60.00;;;;;;5064147;28;20025;-69
2023/08/06 02:04:33;;;;;;;2.53;1.60;;;16.40;60.00;;;;;;5057834;28;20048;-73
2023/08/06 02:06:59;;;;;;;2.33;1.10;;;16.40;60.10;;;;;;5062560;28;20032;-75
2023/08/06 02:09:25;;;;;;;1.15;0.95;;;16.40;60.30;;;;;;5063780;28;20034;-73
2023/08/06 02:11:52;;;;;;;2.45;2.13;;;16.30;60.70;;;;;;5066278;28;20036;-79
2023/08/06 02:14:18;;;;;;;2.85;1.60;;;16.30;60.30;;;;;;5068462;28;20059;-71
2023/08/06 02:16:44;;;;;;;3.17;1.33;;;16.20;60.20;;;;;;5065763;28;20025;-72
2023/08/06 02:19:09;;;;;;;1.38;1.27;;;16.20;60.30;;;;;;5070842;28;20566;-70
2023/08/06 02:21:35;;;;;;;1.70;1.10;;;16.10;60.20;;;;;;5064902;28;20048;-76
2023/08/06 02:24:02;;;;;;;2.45;1.33;;;16.10;60.30;;;;;;5067617;28;20446;-78
2023/08/06 02:26:29;;;;;;;1.13;1.02;;;16.10;60.40;;;;;;5068549;28;20086;-68
2023/08/06 02:28:55;;;;;;;1.65;1.02;;;16.00;60.30;;;;;;5070550;28;20039;-73
2023/08/06 02:31:21;;;;;;;1.58;1.48;;;16.00;60.40;;;;;;5066272;28;20485;-70
2023/08/06 02:33:47;;;;;;;2.88;1.33;;;16.00;60.50;;;;;;5064059;28;20036;-71
2023/08/06 02:36:13;;;;;;;1.60;1.50;;;16.00;60.50;;;;;;5065411;28;20035;-72
2023/08/06 02:38:39;;;;;;;2.13;1.60;;;15.90;60.50;;;;;;5056577;28;20499;-74
2023/08/06 02:41:06;;;;;;;2.15;1.52;;;15.90;60.50;;;;;;5064944;28;20033;-70
2023/08/06 02:43:33;;;;;;;1.52;1.30;;;15.90;60.60;;;;;;5065193;28;20064;-70
2023/08/06 02:46:00;;;;;;;1.33;1.05;;;15.90;60.60;;;;;;5061464;28;20043;-69
2023/08/06 02:48:27;;;;;;;2.47;1.20;;;15.80;60.60;;;;;;5065705;28;20036;-68
2023/08/06 02:50:58;;;;;;;1.20;0.98;;;15.80;60.60;;;;;;5059582;28;20118;-68
2023/08/06 02:53:25;;;;;;;1.40;1.30;;;15.70;60.50;;;;;;5053599;28;20521;-69
2023/08/06 02:55:53;;;;;;;2.13;1.60;;;15.70;60.50;;;;;;5074318;28;20032;-68
2023/08/06 02:58:25;;;;;;;2.17;1.27;;;15.70;60.60;;;;;;5042255;28;20071;-70
2023/08/06 03:01:10;;;;;;;2.45;1.58;;;15.70;60.70;;;;;;5061950;28;20050;-69
2023/08/06 03:03:47;;;;;;;1.35;1.23;;;15.60;60.60;;;;;;5061316;28;20039;-68
2023/08/06 03:06:20;;;;;;;3.33;1.60;;;15.50;60.50;;;;;;5061631;28;20028;-69
2023/08/06 03:08:50;;;;;;;2.90;1.10;;;15.50;60.60;;;;;;5057801;28;20032;-68
2023/08/06 03:11:16;;;;;;;1.15;1.02;;;15.50;60.70;;;;;;5065847;28;20470;-71
2023/08/06 03:13:43;;;;;;;1.50;1.02;;;15.40;60.60;;;;;;5070434;28;20063;-73
2023/08/06 03:16:11;;;;;;;2.20;1.48;;;15.40;60.70;;;;;;5062462;28;20029;-69
2023/08/06 03:18:37;;;;;;;2.17;1.48;;;15.40;60.80;;;;;;5068864;28;20040;-71
2023/08/06 03:21:05;;;;;;;1.50;1.40;;;15.30;60.70;;;;;;5066480;28;20439;-69
2023/08/06 03:23:31;;;;;;;1.67;1.10;;;15.30;60.80;;;;;;5067662;28;20036;-72
2023/08/06 03:26:02;;;;;;;1.92;1.30;;;15.20;60.70;;;;;;5068556;28;20024;-69
2023/08/06 03:28:30;;;;;;;1.45;1.35;;;15.20;60.80;;;;;;5066623;28;20032;-68
2023/08/06 03:31:01;;;;;;;2.50;1.38;;;15.20;60.80;;;;;;5065970;28;20037;-68
2023/08/06 03:33:29;;;;;;;1.75;1.35;;;15.20;60.90;;;;;;5063883;28;20034;-71
2023/08/06 03:35:58;;;;;;;1.75;1.15;;;15.10;60.70;;;;;;5065422;28;20052;-69
2023/08/06 03:38:25;;;;;;;1.95;1.38;;;15.20;61.00;;;;;;5052583;28;20032;-67
2023/08/06 03:40:51;;;;;;;1.70;1.20;;;15.10;60.90;;;;;;5066639;28;20040;-69
2023/08/06 03:43:17;;;;;;;1.85;1.20;;;15.10;61.00;;;;;;5063042;28;20130;-68
2023/08/06 03:45:43;;;;;;;3.10;1.20;;;15.00;60.80;;;;;;5062303;28;20041;-72
2023/08/06 03:48:10;;;;;;;1.58;1.48;;;15.00;60.80;;;;;;5066195;28;20484;-76
2023/08/06 03:50:36;;;;;;;1.40;1.30;;;15.00;60.90;;;;;;5060980;28;20093;-69
2023/08/06 03:53:02;;;;;;;1.42;1.27;;;15.00;61.00;;;;;;5064940;28;20146;-72
2023/08/06 03:55:28;;;;;;;1.40;1.20;;;15.00;61.00;;;;;;5070331;28;20028;-73
2023/08/06 03:57:54;;;;;;;1.52;1.42;;;15.00;61.10;;;;;;5069913;28;20029;-71
2023/08/06 04:00:21;;;;;;;1.67;1.40;;;15.00;61.60;;;;;;5065395;28;20081;-70
2023/08/06 04:02:52;;;;;;;3.45;1.27;;;14.90;61.00;;;;;;5064636;28;20063;-71
2023/08/06 04:05:18;;;;;;;1.63;1.30;;;14.90;61.10;;;;;;5068142;28;20037;-71
2023/08/06 04:07:43;;;;;;;1.38;1.27;;;14.80;61.00;;;;;;5060824;28;20036;-70
2023/08/06 04:10:09;;;;;;;3.90;1.30;;;14.80;61.00;;;;;;5077351;28;20997;-70
2023/08/06 04:12:38;;;;;;;1.35;1.25;;;14.80;61.10;;;;;;5058864;28;20056;-72
2023/08/06 04:15:04;;;;;;;1.52;1.10;;;14.70;61.00;;;;;;5071548;28;20229;-69
2023/08/06 04:17:30;;;;;;;1.85;1.50;;;14.70;61.10;;;;;;5072075;28;20488;-70
2023/08/06 04:19:58;;;;;;;2.95;1.73;;;14.70;61.20;;;;;;5067484;28;20029;-72
2023/08/06 04:22:24;;;;;;;1.83;1.10;;;14.70;61.20;;;;;;5066150;28;20116;-69
2023/08/06 04:24:50;;;;;;;1.50;1.20;;;14.60;61.10;;;;;;5072506;28;20056;-71
2023/08/06 04:27:18;;;;;;;1.20;1.10;;;14.60;61.20;;;;;;5073428;28;20029;-69
2023/08/06 04:29:45;;;;;;;1.38;1.27;;;14.60;61.20;;;;;;5067518;28;20697;-72
2023/08/06 04:32:12;;;;;;;2.20;1.70;;;14.50;61.10;;;;;;5070181;28;20225;-68
2023/08/06 04:34:43;;;;;;;1.55;1.45;;;14.50;61.20;;;;;;5068632;28;20508;-72
2023/08/06 04:37:09;;;;;;;2.15;1.17;;;14.50;61.20;;;;;;5065969;28;20043;-72
2023/08/06 04:39:36;;;;;;;1.63;0.93;;;14.50;61.20;;;;;;5067886;28;20040;-76
2023/08/06 04:42:02;;;;;;;1.40;0.95;;;14.50;61.30;;;;;;5068041;28;20028;-71
2023/08/06 04:44:28;;;;;;;1.58;1.30;;;14.50;61.30;;;;;;5066588;28;20033;-68
2023/08/06 04:46:54;;;;;;;1.60;1.50;;;14.50;61.30;;;;;;5072130;28;20029;-69
2023/08/06 04:49:21;;;;;;;1.42;1.00;;;14.50;61.30;;;;;;5063580;28;20028;-69
2023/08/06 04:51:47;;;;;;;1.38;1.05;;;14.50;61.40;;;;;;5058227;28;20044;-68
2023/08/06 04:54:13;;;;;;;1.70;1.13;;;14.50;61.40;;;;;;5079333;28;20071;-69
2023/08/06 04:56:38;;;;;;;1.65;1.30;;;14.50;61.40;;;;;;5074403;28;20388;-67
2023/08/06 04:59:05;;;;;;;1.42;1.23;;;14.50;61.40;;;;;;5068788;28;20020;-68
2023/08/06 05:01:32;;;;;;;1.80;1.10;;;14.60;61.60;;;;;;5062241;28;20399;-70
2023/08/06 05:03:57;;;;;;;1.80;1.08;;;14.60;61.60;;;;;;5070117;28;20036;-69
2023/08/06 05:06:23;;;;;;;2.92;1.35;;;14.50;61.40;;;;;;5062777;28;20028;-77
2023/08/06 05:08:50;;;;;;;1.48;1.30;;;14.60;61.60;;;;;;5063832;28;20043;-73
2023/08/06 05:11:15;;;;;;;1.73;1.10;;;14.50;61.40;;;;;;5068085;28;20066;-76
2023/08/06 05:13:41;;;;;;;1.80;1.70;;;14.60;61.70;;;;;;5070672;28;20047;-70
2023/08/06 05:16:07;;;;;;;2.10;1.17;;;14.60;62.20;;;;;;5063645;28;20025;-69
2023/08/06 05:18:34;;;;;;;1.60;1.00;;;14.60;61.70;;;;;;5064357;28;20436;-74
2023/08/06 05:21:00;;;;;;;1.27;1.00;;;14.60;61.70;;;;;;5067304;28;20028;-69
2023/08/06 05:23:26;;;;;;;2.33;1.98;;;14.60;62.30;;;;;;5065479;28;20507;-72
2023/08/06 05:25:52;;;;;;;4.88;1.30;;;14.60;61.60;;;;;;5055475;28;20043;-70
2023/08/06 05:28:18;;;;;;;4.43;1.85;;;14.80;61.90;;;;;;5069963;28;20093;-68
2023/08/06 05:30:44;;;;;;;1.85;1.65;;;14.80;61.90;;;;;;5062927;28;20619;-70
2023/08/06 05:33:10;;;;;;;3.20;1.40;;;14.90;62.40;;;;;;5063116;28;20535;-73
2023/08/06 05:35:36;;;;;;;1.40;1.27;;;15.00;62.90;;;;;;5066254;28;20057;-70
2023/08/06 05:38:02;;;;;;;1.48;1.38;;;15.10;63.30;;;;;;5077282;28;20032;-69
2023/08/06 05:40:28;;;;;;;2.35;1.88;;;15.20;63.50;;;;;;5064786;28;20032;-74
2023/08/06 05:42:54;;;;;;;2.95;1.48;;;15.40;64.00;;;;;;5066827;28;20029;-77
2023/08/06 05:45:20;;;;;;;5.30;1.25;;;15.40;64.20;;;;;;5068811;28;20054;-77
2023/08/06 05:47:48;;;;;;;2.42;1.33;;;15.50;64.40;;;;;;5057573;28;20133;-79
2023/08/06 05:50:14;;;;;;;3.67;2.03;;;15.70;64.80;;;;;;5059285;28;20155;-70
2023/08/06 05:52:40;;;;;;;2.95;1.50;;;15.70;64.70;;;;;;5061704;28;20039;-73
2023/08/06 05:55:06;;;;;;;2.25;1.50;;;15.80;64.80;;;;;;5061268;28;20101;-70
2023/08/06 05:57:32;;;;;;;2.17;1.30;;;15.90;64.90;;;;;;5064777;28;20056;-75
2023/08/06 05:59:58;;;;;;;1.80;1.60;;;16.10;65.10;;;;;;5062582;28;20044;-71
2023/08/06 06:02:24;;;;;;;2.92;1.30;;;16.10;65.00;;;;;;5059912;28;20555;-76
2023/08/06 06:04:50;;;;;;;1.88;1.48;;;16.20;65.00;;;;;;5050819;28;20041;-74
2023/08/06 06:07:16;;;;;;;5.78;2.28;;;16.30;65.10;;;;;;5057851;28;20415;-71
2023/08/06 06:09:44;;;;;;;3.28;2.10;;;16.40;65.00;;;;;;5051020;28;20032;-75
2023/08/06 06:12:10;;;;;;;2.92;1.33;;;16.40;64.60;;;;;;5061412;28;20111;-73
2023/08/06 06:14:36;;;;;;;2.67;1.80;;;16.40;64.40;;;;;;5061622;28;20155;-74
2023/08/06 06:17:02;;;;;;;5.03;2.05;;;16.40;64.30;;;;;;5051678;28;20622;-71
2023/08/06 06:19:27;;;;;;;2.65;1.50;;;16.40;64.30;;;;;;5068282;28;20483;-71
2023/08/06 06:21:53;;;;;;;2.35;1.30;;;16.40;64.30;;;;;;5054901;28;20033;-74
2023/08/06 06:24:19;;;;;;;4.10;1.52;;;16.40;64.30;;;;;;5059193;28;20036;-75
2023/08/06 06:26:45;;;;;;;4.07;1.60;;;16.40;64.30;;;;;;5055966;28;20474;-74
2023/08/06 06:29:11;;;;;;;2.95;1.17;;;16.50;64.50;;;;;;5059791;28;20105;-74
2023/08/06 06:31:37;;;;;;;2.70;1.20;;;16.60;64.70;;;;;;5061520;28;20027;-72
2023/08/06 06:34:03;;;;;;;4.25;1.42;;;16.60;64.50;;;;;;5058828;28;20071;-77
2023/08/06 06:36:29;;;;;;;8.88;1.60;;;16.70;64.50;;;;;;5060347;28;20024;-77
2023/08/06 06:38:55;;;;;;;2.03;1.45;;;16.70;64.40;;;;;;5053869;28;20114;-75
2023/08/06 06:41:21;;;;;;;2.47;1.60;;;16.70;64.40;;;;;;5060268;28;20118;-75
2023/08/06 06:43:47;;;;;;;3.15;1.30;;;16.70;64.50;;;;;;5062589;28;20123;-73
2023/08/06 06:46:13;;;;;;;2.30;1.20;;;16.80;64.70;;;;;;5056584;28;20036;-68
2023/08/06 06:48:39;;;;;;;2.67;1.30;;;16.90;64.90;;;;;;5057783;28;20040;-68
2023/08/06 06:51:05;;;;;;;3.70;1.50;;;16.90;64.90;;;;;;5057996;28;20024;-68
2023/08/06 06:53:31;;;;;;;3.63;1.30;;;17.00;65.00;;;;;;5050799;28;20068;-73
2023/08/06 06:56:02;;;;;;;2.67;1.45;;;17.10;65.00;;;;;;5052167;28;20034;-70
2023/08/06 06:58:28;;;;;;;3.75;1.23;;;17.20;65.10;;;;;;5052658;28;20094;-69
2023/08/06 07:00:54;;;;;;;3.60;1.67;;;17.30;65.00;;;;;;5070766;28;20127;-71
2023/08/06 07:03:20;;;;;;;3.17;1.42;;;17.40;65.00;;;;;;5058660;28;20043;-69
2023/08/06 07:05:46;;;;;;;3.63;1.17;;;17.50;65.00;;;;;;5059376;28;20079;-72
2023/08/06 07:08:12;;;;;;;3.42;1.00;;;17.60;65.00;;;;;;5050479;28;20556;-83
2023/08/06 07:10:40;;;;;;;3.28;1.40;;;17.70;64.90;;;;;;5061723;28;20056;-84
2023/08/06 07:13:06;;;;;;;3.10;1.63;;;17.80;64.80;;;;;;5057307;28;20109;-77
2023/08/06 07:15:32;;;;;;;2.58;1.35;;;17.90;64.80;;;;;;5053226;28;20048;-81
2023/08/06 07:17:58;;;;;;;2.42;1.17;;;18.00;64.70;;;;;;5058711;28;20083;-68
2023/08/06 07:20:24;;;;;;;3.13;1.10;;;18.10;64.60;;;;;;5060909;28;20758;-71
2023/08/06 07:22:50;;;;;;;2.05;1.02;;;18.30;64.80;;;;;;5062605;28;20194;-76
2023/08/06 07:25:17;;;;;;;2.63;1.27;;;18.50;64.80;;;;;;5066885;28;20047;-74
2023/08/06 07:27:43;;;;;;;1.40;1.05;;;18.80;64.80;;;;;;5062145;28;20033;-68
2023/08/06 07:30:09;;;;;;;1.65;1.00;;;19.30;64.60;;;;;;5070716;28;20032;-68
2023/08/06 07:32:38;;;;;;;2.83;1.10;;;19.90;63.80;;;;;;5063043;28;20105;-68
2023/08/06 07:35:05;;;;;;;3.95;1.20;;;20.30;63.10;;;;;;5071696;28;20052;-69
2023/08/06 07:37:31;;;;;;;3.17;1.00;;;20.70;62.80;;;;;;5065699;28;20064;-72
2023/08/06 07:39:57;;;;;;;4.90;1.33;;;21.00;62.70;;;;;;5073856;28;20103;-70
2023/08/06 07:42:23;;;;;;;1.35;0.80;;;21.30;62.20;;;;;;5068075;28;20245;-72
2023/08/06 07:44:56;;;;;;;2.40;0.93;;;21.40;61.60;;;;;;5069544;28;20043;-73
2023/08/06 07:47:22;;;;;;;3.30;0.77;;;21.40;61.40;;;;;;5067792;28;20063;-76
2023/08/06 07:49:48;;;;;;;2.35;0.88;;;21.30;61.30;;;;;;5063193;28;20082;-71
2023/08/06 07:52:14;;;;;;;1.25;0.73;;;21.10;60.90;;;;;;5044389;28;20527;-74
2023/08/06 07:54:41;;;;;;;3.10;1.45;;;21.00;60.90;;;;;;5071250;28;20044;-75
2023/08/06 07:57:07;;;;;;;3.47;1.10;;;21.00;60.90;;;;;;5065546;28;20586;-72
2023/08/06 07:59:33;;;;;;;5.43;2.05;;;20.90;60.80;;;;;;5062484;28;20113;-75
2023/08/06 08:02:01;;;;;;;5.68;2.90;;;21.00;60.90;;;;;;5062832;28;20437;-72
2023/08/06 08:04:27;;;;;;;11.63;5.68;;;21.20;60.80;;;;;;5060572;28;20416;-75
2023/08/06 08:06:53;;;;;;;7.25;3.50;;;21.40;60.40;;;;;;5063153;28;20074;-75
2023/08/06 08:09:19;;;;;;;6.53;4.60;;;21.60;60.10;;;;;;5051396;28;20032;-75
2023/08/06 08:11:46;;;;;;;3.78;2.30;;;21.70;59.60;;;;;;5059217;28;20102;-73
2023/08/06 08:14:12;;;;;;;4.07;2.08;;;21.90;59.40;;;;;;5065190;28;20076;-75
2023/08/06 08:16:39;;;;;;;4.15;1.52;;;22.20;59.20;;;;;;5067667;28;20051;-72
2023/08/06 08:19:04;;;;;;;3.60;1.30;;;22.30;58.70;;;;;;5063560;28;20036;-75
2023/08/06 08:21:31;;;;;;;2.97;1.30;;;22.40;58.40;;;;;;5054596;28;20306;-67
2023/08/06 08:24:00;;;;;;;2.33;0.90;;;22.40;58.00;;;;;;5060266;28;20040;-75
2023/08/06 08:26:27;;;;;;;2.80;1.08;;;22.40;57.60;;;;;;5060641;28;20553;-74
2023/08/06 08:28:53;;;;;;;2.53;1.00;;;22.30;57.40;;;;;;5068075;28;20089;-72
2023/08/06 08:31:19;;;;;;;4.15;0.82;;;22.20;57.40;;;;;;5062771;28;20432;-74
2023/08/06 08:33:46;;;;;;;3.60;1.23;;;22.10;57.50;;;;;;5062619;28;20465;-77
2023/08/06 08:36:12;;;;;;;2.47;1.27;;;21.90;57.40;;;;;;5066717;28;20048;-74
2023/08/06 08:38:38;;;;;;;3.60;0.85;;;21.80;57.50;;;;;;5060531;28;20131;-73
2023/08/06 08:41:04;;;;;;;28.73;10.23;;;21.70;57.40;;;;;;5059322;28;20036;-74
2023/08/06 08:43:31;;;;;;;19.70;7.78;;;21.50;57.30;;;;;;5063663;28;20062;-73
2023/08/06 08:45:58;;;;;;;22.83;5.57;;;21.40;57.40;;;;;;5069473;28;20453;-70
2023/08/06 08:48:28;;;;;;;4.00;1.70;;;21.20;57.40;;;;;;5059724;28;20151;-74
2023/08/06 08:50:56;;;;;;;11.18;2.72;;;21.20;57.80;;;;;;5056822;28;20097;-71
2023/08/06 08:53:22;;;;;;;2.83;1.38;;;21.00;57.70;;;;;;5058692;28;20115;-70
2023/08/06 08:55:49;;;;;;;97.70;40.10;;;21.00;57.90;;;;;;5064359;28;20058;-70
2023/08/06 08:58:16;;;;;;;12.68;6.18;;;21.00;58.00;;;;;;5064343;28;20032;-71
2023/08/06 09:00:45;;;;;;;46.83;21.60;;;21.00;58.30;;;;;;5062110;28;20039;-71
2023/08/06 09:03:14;;;;;;;93.53;37.38;;;21.10;58.30;;;;;;5061989;28;20021;-71
2023/08/06 09:05:44;;;;;;;58.83;18.90;;;21.20;58.20;;;;;;5060876;28;20032;-70
2023/08/06 09:08:15;;;;;;;8.85;4.22;;;21.30;58.40;;;;;;5051526;28;20028;-71
2023/08/06 09:10:42;;;;;;;5.85;2.20;;;21.30;58.30;;;;;;5064178;28;20067;-71
2023/08/06 09:13:12;;;;;;;2.85;1.10;;;21.30;58.30;;;;;;5057345;28;20048;-71
2023/08/06 09:15:38;;;;;;;1.35;0.77;;;21.30;58.30;;;;;;5059949;28;20043;-70
2023/08/06 09:18:12;;;;;;;5.57;1.25;;;21.30;58.30;;;;;;5063250;28;20920;-71
2023/08/06 09:20:41;;;;;;;2.45;1.08;;;21.30;58.20;;;;;;5055081;28;20323;-69
2023/08/06 09:23:08;;;;;;;2.88;1.27;;;21.40;58.50;;;;;;5059802;28;20042;-68
2023/08/06 09:25:39;;;;;;;5.10;1.77;;;21.60;58.90;;;;;;5057010;28;20115;-69
2023/08/06 09:28:08;;;;;;;3.42;1.10;;;21.70;58.90;;;;;;5059757;28;20043;-70
2023/08/06 09:30:37;;;;;;;2.08;1.00;;;21.90;59.00;;;;;;5058483;28;20435;-69
2023/08/06 09:33:15;;;;;;;4.13;1.52;;;22.10;59.00;;;;;;5058416;28;20357;-70
2023/08/06 09:35:42;;;;;;;2.92;1.13;;;22.40;59.20;;;;;;5061199;28;20055;-70
2023/08/06 09:38:10;;;;;;;2.22;1.30;;;22.70;59.20;;;;;;5058737;28;20040;-69
2023/08/06 09:40:37;;;;;;;3.05;1.15;;;23.20;59.40;;;;;;5058318;28;20036;-70
2023/08/06 09:43:05;;;;;;;3.58;1.40;;;23.50;59.10;;;;;;5059563;28;20539;-68
2023/08/06 09:45:33;;;;;;;1.63;1.25;;;23.80;58.80;;;;;;5057123;28;20528;-74
2023/08/06 09:48:07;;;;;;;5.13;2.10;;;24.00;58.80;;;;;;5057736;28;20040;-70
2023/08/06 09:50:36;;;;;;;4.32;2.00;;;24.30;59.00;;;;;;5061502;28;20043;-71
2023/08/06 09:53:07;;;;;;;4.40;1.92;;;24.50;58.90;;;;;;5051328;28;20059;-69
2023/08/06 09:55:37;;;;;;;4.10;1.42;;;24.80;59.00;;;;;;5059648;28;20032;-68
2023/08/06 09:58:05;;;;;;;3.00;1.55;;;24.90;59.50;;;;;;5057151;28;20028;-70
2023/08/06 10:00:34;;;;;;;3.03;1.70;;;25.10;59.00;;;;;;5066069;28;20557;-68
2023/08/06 10:03:01;;;;;;;3.53;1.70;;;25.20;58.50;;;;;;5051567;28;20025;-70
2023/08/06 10:05:32;;;;;;;1.02;0.68;;;25.40;58.70;;;;;;5059375;28;20032;-71
2023/08/06 10:08:00;;;;;;;1.67;1.00;;;25.50;57.30;;;;;;5061162;28;20032;-69
2023/08/06 10:10:28;;;;;;;1.30;0.80;;;25.50;56.50;;;;;;5062573;28;20396;-71
2023/08/06 10:12:58;;;;;;;2.90;0.77;;;25.50;55.80;;;;;;5058759;28;20127;-71
2023/08/06 10:15:28;;;;;;;1.73;0.70;;;25.30;55.10;;;;;;5059046;28;20041;-67
2023/08/06 10:17:58;;;;;;;3.00;1.13;;;25.10;54.90;;;;;;5056370;28;20028;-71
2023/08/06 10:20:32;;;;;;;1.55;0.70;;;25.00;54.90;;;;;;5061043;28;20059;-72
2023/08/06 10:23:03;;;;;;;1.58;0.80;;;25.00;55.30;;;;;;5056276;28;20488;-70
2023/08/06 10:25:34;;;;;;;3.13;1.00;;;25.00;55.40;;;;;;5057448;28;20029;-74
2023/08/06 10:28:17;;;;;;;4.85;1.20;;;25.10;55.60;;;;;;5058389;28;20759;-73
2023/08/06 10:30:47;;;;;;;2.15;0.80;;;25.30;55.60;;;;;;5051693;28;20029;-68
2023/08/06 10:33:15;;;;;;;5.85;1.23;;;25.50;55.30;;;;;;5055643;28;20071;-69
2023/08/06 10:35:44;;;;;;;3.25;1.30;;;25.60;55.20;;;;;;5056455;28;20429;-68
2023/08/06 10:38:15;;;;;;;2.35;0.95;;;25.60;55.10;;;;;;5054580;28;20033;-68
2023/08/06 10:40:54;;;;;;;4.60;1.88;;;25.60;55.10;;;;;;5057974;28;20473;-72
2023/08/06 10:43:39;;;;;;;1.58;0.77;;;25.60;55.10;;;;;;5060822;28;20047;-69
2023/08/06 10:46:11;;;;;;;2.55;1.15;;;25.60;55.20;;;;;;5058447;28;20038;-72
2023/08/06 10:48:41;;;;;;;1.83;0.80;;;25.60;55.20;;;;;;5057150;28;20088;-73
2023/08/06 10:51:09;;;;;;;1.58;0.85;;;25.70;55.10;;;;;;5056734;28;20392;-68
2023/08/06 10:53:37;;;;;;;1.52;0.82;;;25.80;55.10;;;;;;5059159;28;20557;-68
2023/08/06 10:56:17;;;;;;;0.98;0.70;;;25.70;55.10;;;;;;5055705;28;20036;-68
2023/08/06 10:58:46;;;;;;;2.80;1.25;;;25.70;54.90;;;;;;5069294;28;20035;-68
2023/08/06 11:01:13;;;;;;;3.97;1.10;;;25.80;55.00;;;;;;5062937;28;20093;-68
2023/08/06 11:03:41;;;;;;;2.65;0.85;;;25.80;54.90;;;;;;5058808;28;20059;-68
2023/08/06 11:06:09;;;;;;;9.85;1.65;;;25.90;54.70;;;;;;5054879;28;20098;-68
2023/08/06 11:08:47;;;;;;;1.42;1.00;;;26.00;54.70;;;;;;5047690;28;20036;-68
2023/08/06 11:11:17;;;;;;;5.07;2.20;;;26.00;54.70;;;;;;5058834;28;20413;-68
2023/08/06 11:13:46;;;;;;;2.58;1.23;;;26.00;54.80;;;;;;5057811;28;20048;-68
2023/08/06 11:16:18;;;;;;;1.52;1.05;;;26.00;54.80;;;;;;5053835;28;20052;-70
2023/08/06 11:18:45;;;;;;;3.03;1.13;;;25.90;54.60;;;;;;5056992;28;20047;-70
2023/08/06 11:21:11;;;;;;;3.80;2.50;;;25.80;54.50;;;;;;5057700;28;20031;-70
2023/08/06 11:23:38;;;;;;;9.10;6.70;;;25.80;55.40;;;;;;5063900;28;20043;-69
2023/08/06 11:26:05;;;;;;;34.25;28.33;;;25.70;54.90;;;;;;5063258;28;20092;-72
2023/08/06 11:28:31;;;;;;;34.15;30.30;;;25.70;55.00;;;;;;5067730;28;20091;-69
2023/08/06 11:31:01;;;;;;;31.00;25.33;;;25.80;55.20;;;;;;5058637;28;20192;-68
2023/08/06 11:33:28;;;;;;;27.85;23.58;;;25.90;55.00;;;;;;5070615;28;20093;-69
2023/08/06 11:35:56;;;;;;;29.92;25.77;;;26.10;54.80;;;;;;5063456;28;20408;-68
2023/08/06 11:38:25;;;;;;;26.30;23.52;;;26.20;54.70;;;;;;5058576;28;20032;-72
2023/08/06 11:40:52;;;;;;;25.40;22.65;;;26.20;54.60;;;;;;5064700;28;20518;-68
2023/08/06 11:43:20;;;;;;;21.90;17.70;;;26.30;54.70;;;;;;5058310;28;20036;-70
2023/08/06 11:45:53;;;;;;;19.45;17.42;;;26.20;54.60;;;;;;5064505;28;20040;-73
2023/08/06 11:48:20;;;;;;;22.90;19.38;;;26.10;54.50;;;;;;5058159;28;20154;-68
2023/08/06 11:50:47;;;;;;;17.23;14.05;;;25.90;54.50;;;;;;5058748;28;20419;-69
2023/08/06 11:53:15;;;;;;;16.42;14.57;;;25.80;54.50;;;;;;5056224;28;20064;-71
2023/08/06 11:55:41;;;;;;;13.93;7.50;;;25.60;54.60;;;;;;5062437;28;20129;-72
2023/08/06 11:58:07;;;;;;;4.80;3.55;;;25.50;54.60;;;;;;5054099;28;20546;-71
2023/08/06 12:00:34;;;;;;;10.63;7.15;;;25.30;54.30;;;;;;5056479;28;20045;-71
2023/08/06 12:03:00;;;;;;;8.80;6.18;;;25.10;54.60;;;;;;5042533;28;20138;-71
2023/08/06 12:05:33;;;;;;;7.05;5.88;;;25.10;55.10;;;;;;5062843;28;20128;-73
2023/08/06 12:08:08;;;;;;;5.93;5.28;;;25.20;55.20;;;;;;5055266;28;20035;-71
2023/08/06 12:10:35;;;;;;;6.35;5.57;;;25.40;54.90;;;;;;5058628;28;20701;-72
2023/08/06 12:13:08;;;;;;;5.85;4.70;;;25.60;54.60;;;;;;5062579;28;20079;-72
2023/08/06 12:15:42;;;;;;;8.45;6.22;;;25.80;54.30;;;;;;5060533;28;20132;-71
2023/08/06 12:18:09;;;;;;;10.27;5.97;;;25.90;54.20;;;;;;5058926;28;20043;-73
2023/08/06 12:20:38;;;;;;;6.40;4.65;;;25.90;54.20;;;;;;5059772;28;20029;-73
2023/08/06 12:23:15;;;;;;;6.72;4.30;;;25.80;54.00;;;;;;5057385;28;20097;-71
2023/08/06 12:25:42;;;;;;;6.07;4.30;;;25.80;54.00;;;;;;5061490;28;20035;-70
2023/08/06 12:28:16;;;;;;;4.32;3.90;;;25.70;54.60;;;;;;5049806;28;20392;-70
2023/08/06 12:30:45;;;;;;;9.05;4.80;;;25.70;53.80;;;;;;5066279;28;20039;-70
2023/08/06 12:33:15;;;;;;;4.70;3.65;;;25.90;53.80;;;;;;5061111;28;20041;-71
2023/08/06 12:35:41;;;;;;;5.22;3.80;;;26.00;53.50;;;;;;5062768;28;20120;-70
2023/08/06 12:38:07;;;;;;;4.35;3.08;;;26.10;53.20;;;;;;5057125;28;20535;-72
2023/08/06 12:40:33;;;;;;;6.95;3.70;;;26.20;53.00;;;;;;5059545;28;20416;-71
2023/08/06 12:43:00;;;;;;;3.50;1.48;;;26.10;53.00;;;;;;5065807;28;20033;-72
2023/08/06 12:45:25;;;;;;;3.45;1.48;;;26.10;52.90;;;;;;5062324;28;20060;-71
2023/08/06 12:47:52;;;;;;;1.23;1.02;;;25.90;52.60;;;;;;5057761;28;20030;-71